createdAt,value
2018-06-02T00:00:34.840Z,92.29
2018-06-02T00:01:35.030Z,92.77
2018-06-02T00:02:35.240Z,93.15
2018-06-02T00:03:35.578Z,92.48
2018-06-02T00:04:35.669Z,92.67
2018-06-02T00:05:35.869Z,92.67
2018-06-02T00:06:36.080Z,92.67
2018-06-02T00:07:36.285Z,92.86
2018-06-02T00:08:36.502Z,92.67
2018-06-02T00:09:36.684Z,92.86
2018-06-02T00:10:36.898Z,92.96
2018-06-02T00:11:37.108Z,92.86
2018-06-02T00:12:37.322Z,92.86
2018-06-02T00:13:37.528Z,93.05
2018-06-02T00:14:37.755Z,92.96
2018-06-02T00:15:37.952Z,92.86
2018-06-02T00:16:38.179Z,93.25
2018-06-02T00:17:38.387Z,93.44
2018-06-02T00:18:38.587Z,93.44
2018-06-02T00:19:38.766Z,93.63
2018-06-02T00:22:10.951Z,93.63
2018-06-02T00:23:11.127Z,93.30
2018-06-02T00:24:11.353Z,93.59
2018-06-02T00:25:11.540Z,94.16
2018-06-02T00:26:11.727Z,94.21
2018-06-02T00:27:11.931Z,94.16
2018-06-02T00:28:12.141Z,94.01
2018-06-02T00:29:12.358Z,94.01
2018-06-02T00:30:12.570Z,94.59
2018-06-02T00:31:12.791Z,94.49
2018-06-02T00:32:13.035Z,94.74
2018-06-02T00:33:13.247Z,94.45
2018-06-02T00:34:13.459Z,94.93
2018-06-02T00:35:13.670Z,95.41
2018-06-02T00:36:13.879Z,94.93
2018-06-02T00:37:14.090Z,94.83
2018-06-02T00:38:14.291Z,95.31
2018-06-02T00:39:14.480Z,94.93
2018-06-02T00:40:14.677Z,95.03
2018-06-02T00:41:14.859Z,95.12
2018-06-02T00:42:15.060Z,95.31
2018-06-02T00:43:15.278Z,95.12
2018-06-02T00:44:15.493Z,95.31
2018-06-02T00:45:15.694Z,94.64
2018-06-02T00:46:15.886Z,94.64
2018-06-02T00:47:16.088Z,94.64
2018-06-02T00:48:16.278Z,94.74
2018-06-02T00:49:16.479Z,94.78
2018-06-02T00:50:16.666Z,94.54
2018-06-02T00:51:16.880Z,95.31
2018-06-02T00:52:17.095Z,95.41
2018-06-02T00:53:17.283Z,94.74
2018-06-02T00:54:17.481Z,94.49
2018-06-02T00:55:17.675Z,94.64
2018-06-02T00:56:17.859Z,94.64
2018-06-02T00:57:18.041Z,95.21
2018-06-02T00:58:18.229Z,95.12
2018-06-02T00:59:18.440Z,95.03
2018-06-02T01:00:18.642Z,95.03
2018-06-02T01:01:18.845Z,95.21
2018-06-02T01:02:19.064Z,95.21
2018-06-02T01:03:19.267Z,95.31
2018-06-02T01:04:19.481Z,95.21
2018-06-02T01:05:19.676Z,95.21
2018-06-02T01:06:19.876Z,94.74
2018-06-02T01:07:20.086Z,94.64
2018-06-02T01:08:20.302Z,95.31
2018-06-02T01:09:20.486Z,94.54
2018-06-02T01:10:20.678Z,94.45
2018-06-02T01:11:20.867Z,94.54
2018-06-02T01:12:21.057Z,94.64
2018-06-02T01:13:21.281Z,94.45
2018-06-02T01:14:21.468Z,94.54
2018-06-02T01:15:21.667Z,94.45
2018-06-02T01:16:21.877Z,94.45
2018-06-02T01:17:22.089Z,94.54
2018-06-02T01:18:22.268Z,94.64
2018-06-02T01:19:22.456Z,94.74
2018-06-02T01:20:22.648Z,95.21
2018-06-02T01:21:22.861Z,95.21
2018-06-02T01:22:23.052Z,94.45
2018-06-02T01:23:23.249Z,94.45
2018-06-02T01:24:23.450Z,94.74
2018-06-02T01:25:23.637Z,95.12
2018-06-02T01:26:23.840Z,95.12
2018-06-02T01:27:24.045Z,94.64
2018-06-02T01:28:24.241Z,95.31
2018-06-02T01:29:24.457Z,95.12
2018-06-02T01:30:24.690Z,95.12
2018-06-02T01:31:24.901Z,94.69
2018-06-02T01:32:25.100Z,94.74
2018-06-02T01:33:25.308Z,95.31
2018-06-02T01:34:25.524Z,95.36
2018-06-02T01:35:25.721Z,94.45
2018-06-02T01:36:25.918Z,94.74
2018-06-02T01:37:26.128Z,94.45
2018-06-02T01:38:26.318Z,94.93
2018-06-02T01:39:26.508Z,95.03
2018-06-02T01:40:26.689Z,95.12
2018-06-02T01:41:27.025Z,94.93
2018-06-02T01:42:27.104Z,95.31
2018-06-02T01:43:27.299Z,95.31
2018-06-02T01:44:27.512Z,94.93
2018-06-02T01:45:27.712Z,95.03
2018-06-02T01:46:27.925Z,95.50
2018-06-02T01:47:28.124Z,95.41
2018-06-02T01:48:28.330Z,94.83
2018-06-02T01:49:28.538Z,95.89
2018-06-02T01:50:28.734Z,95.12
2018-06-02T01:51:28.921Z,95.12
2018-06-02T01:52:29.142Z,95.03
2018-06-02T01:53:29.354Z,94.83
2018-06-02T01:54:29.541Z,94.93
2018-06-02T01:55:29.745Z,94.93
2018-06-02T01:56:29.949Z,94.74
2018-06-02T01:57:30.144Z,95.89
2018-06-02T01:58:30.327Z,94.74
2018-06-02T01:59:30.533Z,95.89
2018-06-02T02:00:30.725Z,95.41
2018-06-02T02:01:30.928Z,95.79
2018-06-02T02:02:31.145Z,95.70
2018-06-02T02:03:31.326Z,95.31
2018-06-02T02:04:31.526Z,95.50
2018-06-02T02:05:31.737Z,95.70
2018-06-02T02:06:31.945Z,95.70
2018-06-02T02:07:32.145Z,95.89
2018-06-02T02:08:32.351Z,95.70
2018-06-02T02:09:32.539Z,95.98
2018-06-02T02:10:32.777Z,95.98
2018-06-02T02:11:32.963Z,95.41
2018-06-02T02:12:33.150Z,96.18
2018-06-02T02:13:33.365Z,96.37
2018-06-02T02:14:33.560Z,95.98
2018-06-02T02:15:33.773Z,96.37
2018-06-02T02:16:33.980Z,96.37
2018-06-02T02:17:34.191Z,96.37
2018-06-02T02:18:34.387Z,96.27
2018-06-02T02:19:34.583Z,96.47
2018-06-02T02:20:34.763Z,97.04
2018-06-02T02:21:34.959Z,96.85
2018-06-02T02:22:35.159Z,96.94
2018-06-02T02:23:35.372Z,97.14
2018-06-02T02:24:35.571Z,96.85
2018-06-02T02:25:35.770Z,96.85
2018-06-02T02:26:35.959Z,96.75
2018-06-02T02:27:36.161Z,96.70
2018-06-02T02:28:36.357Z,97.24
2018-06-02T02:29:36.555Z,97.04
2018-06-02T02:30:36.762Z,97.28
2018-06-02T02:31:36.974Z,97.24
2018-06-02T02:32:37.176Z,97.24
2018-06-02T02:33:37.375Z,97.33
2018-06-02T02:34:37.588Z,97.24
2018-06-02T02:35:37.784Z,97.24
2018-06-02T02:36:37.993Z,97.24
2018-06-02T02:37:38.180Z,97.19
2018-06-02T02:38:38.391Z,97.24
2018-06-02T02:39:38.590Z,97.24
2018-06-02T02:40:38.813Z,97.24
2018-06-02T02:41:39.002Z,96.99
2018-06-02T02:42:39.190Z,97.24
2018-06-02T02:43:39.403Z,97.09
2018-06-02T02:44:39.608Z,97.42
2018-06-02T02:45:39.799Z,97.19
2018-06-02T02:46:39.988Z,97.14
2018-06-02T02:47:40.203Z,96.75
2018-06-02T02:48:40.409Z,97.09
2018-06-02T02:49:40.624Z,97.38
2018-06-02T02:50:40.815Z,97.28
2018-06-02T02:51:41.022Z,97.38
2018-06-02T02:52:41.218Z,97.09
2018-06-02T02:53:41.434Z,96.89
2018-06-02T02:54:41.621Z,96.99
2018-06-02T02:55:41.810Z,97.09
2018-06-02T02:56:42.045Z,97.33
2018-06-02T02:57:42.249Z,97.19
2018-06-02T02:58:42.435Z,97.42
2018-06-02T02:59:42.644Z,97.09
2018-06-02T03:00:42.861Z,96.80
2018-06-02T03:01:43.073Z,97.33
2018-06-02T03:02:43.284Z,97.33
2018-06-02T03:03:43.470Z,97.04
2018-06-02T03:04:43.683Z,96.80
2018-06-02T03:05:43.882Z,96.89
2018-06-02T03:06:44.094Z,96.85
2018-06-02T03:07:44.303Z,97.09
2018-06-02T03:08:44.491Z,97.38
2018-06-02T03:09:44.701Z,97.09
2018-06-02T03:10:44.885Z,96.70
2018-06-02T03:11:45.096Z,97.14
2018-06-02T03:12:45.351Z,96.89
2018-06-02T03:13:45.443Z,96.80
2018-06-02T03:14:45.641Z,96.80
2018-06-02T03:15:45.853Z,96.80
2018-06-02T03:16:46.058Z,96.94
2018-06-02T03:17:46.246Z,97.42
2018-06-02T03:18:46.436Z,97.38
2018-06-02T03:19:46.630Z,97.38
2018-06-02T03:22:20.516Z,96.85
2018-06-02T03:23:18.945Z,97.04
2018-06-02T03:24:19.154Z,97.19
2018-06-02T03:25:19.351Z,96.80
2018-06-02T03:26:19.536Z,96.85
2018-06-02T03:27:19.743Z,97.04
2018-06-02T03:28:19.945Z,96.61
2018-06-02T03:29:20.169Z,96.66
2018-06-02T03:30:20.353Z,97.52
2018-06-02T03:31:20.546Z,96.89
2018-06-02T03:32:20.725Z,96.47
2018-06-02T03:33:20.915Z,96.85
2018-06-02T03:35:53.028Z,97.04
2018-06-02T03:36:53.204Z,97.14
2018-06-02T03:37:53.400Z,97.04
2018-06-02T03:38:53.586Z,95.79
2018-06-02T03:39:53.800Z,97.14
2018-06-02T03:40:53.997Z,97.04
2018-06-02T03:41:54.191Z,96.37
2018-06-02T03:42:54.391Z,96.18
2018-06-02T03:43:54.597Z,95.98
2018-06-02T03:44:54.808Z,97.14
2018-06-02T03:45:54.998Z,96.94
2018-06-02T03:46:55.206Z,96.94
2018-06-02T03:47:55.434Z,97.09
2018-06-02T03:48:55.620Z,96.75
2018-06-02T03:49:55.828Z,96.56
2018-06-02T03:50:56.028Z,96.99
2018-06-02T03:51:56.226Z,96.94
2018-06-02T03:52:56.439Z,96.70
2018-06-02T03:53:56.648Z,97.52
2018-06-02T03:54:56.826Z,97.24
2018-06-02T03:55:57.026Z,97.14
2018-06-02T03:56:57.249Z,96.94
2018-06-02T03:57:57.458Z,97.04
2018-06-02T03:58:57.639Z,97.14
2018-06-02T03:59:57.850Z,96.75
2018-06-02T04:00:58.053Z,96.75
2018-06-02T04:01:58.263Z,96.85
2018-06-02T04:02:58.447Z,96.56
2018-06-02T04:03:58.656Z,96.51
2018-06-02T04:04:58.850Z,96.70
2018-06-02T04:05:59.067Z,97.33
2018-06-02T04:06:59.283Z,97.52
2018-06-02T04:07:59.526Z,97.19
2018-06-02T04:08:59.732Z,96.89
2018-06-02T04:09:59.923Z,97.19
2018-06-02T04:11:00.121Z,97.66
2018-06-02T04:12:00.320Z,97.33
2018-06-02T04:13:00.507Z,97.24
2018-06-02T04:14:00.715Z,98.00
2018-06-02T04:15:00.925Z,97.33
2018-06-02T04:16:01.137Z,97.61
2018-06-02T04:17:01.340Z,97.81
2018-06-02T04:18:01.529Z,97.81
2018-06-02T04:19:01.723Z,98.00
2018-06-02T04:20:01.921Z,98.29
2018-06-02T04:21:02.109Z,97.61
2018-06-02T04:22:02.312Z,97.81
2018-06-02T04:23:02.517Z,97.81
2018-06-02T04:24:02.718Z,98.77
2018-06-02T04:25:02.930Z,98.00
2018-06-02T04:26:03.193Z,98.67
2018-06-02T04:27:03.259Z,98.33
2018-06-02T04:28:03.469Z,98.24
2018-06-02T04:29:03.683Z,98.33
2018-06-02T04:30:03.882Z,98.53
2018-06-02T04:31:04.069Z,98.24
2018-06-02T04:32:04.259Z,98.33
2018-06-02T04:33:04.456Z,98.43
2018-06-02T04:34:04.663Z,98.33
2018-06-02T04:35:04.864Z,98.33
2018-06-02T04:36:05.073Z,98.24
2018-06-02T04:37:05.365Z,97.86
2018-06-02T04:38:05.441Z,98.14
2018-06-02T04:39:05.627Z,98.14
2018-06-02T04:40:05.841Z,97.66
2018-06-02T04:41:06.050Z,97.47
2018-06-02T04:42:06.262Z,98.00
2018-06-02T04:43:06.473Z,98.14
2018-06-02T04:44:06.676Z,97.76
2018-06-02T04:45:06.878Z,97.91
2018-06-02T04:46:07.066Z,97.24
2018-06-02T04:47:07.268Z,96.99
2018-06-02T04:48:07.467Z,96.99
2018-06-02T04:49:07.674Z,97.19
2018-06-02T04:50:07.866Z,96.99
2018-06-02T04:51:08.053Z,96.99
2018-06-02T04:52:08.245Z,97.14
2018-06-02T04:53:08.464Z,96.75
2018-06-02T04:54:08.645Z,96.27
2018-06-02T04:55:08.847Z,96.18
2018-06-02T04:56:09.041Z,97.09
2018-06-02T04:58:41.163Z,96.94
2018-06-02T04:59:41.373Z,96.37
2018-06-02T05:00:41.580Z,96.27
2018-06-02T05:01:41.768Z,95.98
2018-06-02T05:02:41.958Z,96.08
2018-06-02T05:03:42.150Z,95.98
2018-06-02T05:04:42.357Z,95.70
2018-06-02T05:05:42.573Z,95.41
2018-06-02T05:06:42.761Z,95.79
2018-06-02T05:07:42.971Z,96.18
2018-06-02T05:08:43.164Z,95.79
2018-06-02T05:09:43.367Z,95.98
2018-06-02T05:10:43.577Z,95.79
2018-06-02T05:11:43.787Z,95.89
2018-06-02T05:12:43.986Z,95.60
2018-06-02T05:13:44.207Z,95.60
2018-06-02T05:14:44.411Z,95.31
2018-06-02T05:15:44.636Z,95.70
2018-06-02T05:16:44.831Z,94.64
2018-06-02T05:17:45.013Z,94.74
2018-06-02T05:18:45.212Z,94.93
2018-06-02T05:19:45.413Z,95.55
2018-06-02T05:20:45.670Z,94.74
2018-06-02T05:21:45.822Z,95.07
2018-06-02T05:22:46.013Z,95.26
2018-06-02T05:23:46.249Z,95.17
2018-06-02T05:24:46.400Z,94.45
2018-06-02T05:25:46.612Z,94.64
2018-06-02T05:26:46.989Z,94.07
2018-06-02T05:27:47.075Z,94.54
2018-06-02T05:28:47.264Z,95.21
2018-06-02T05:29:47.460Z,94.54
2018-06-02T05:30:47.668Z,95.12
2018-06-02T05:31:47.886Z,95.03
2018-06-02T05:32:48.073Z,94.64
2018-06-02T05:33:48.270Z,95.17
2018-06-02T05:34:48.556Z,94.45
2018-06-02T05:35:48.679Z,95.31
2018-06-02T05:36:48.895Z,95.31
2018-06-02T05:37:49.101Z,95.03
2018-06-02T05:38:49.298Z,94.93
2018-06-02T05:39:49.500Z,95.12
2018-06-02T05:40:49.689Z,95.21
2018-06-02T05:41:49.877Z,95.03
2018-06-02T05:42:50.081Z,95.31
2018-06-02T05:43:50.300Z,95.07
2018-06-02T05:44:50.507Z,95.21
2018-06-02T05:45:50.729Z,95.31
2018-06-02T05:46:50.892Z,94.59
2018-06-02T05:47:51.090Z,95.12
2018-06-02T05:48:51.303Z,94.93
2018-06-02T05:49:51.503Z,95.89
2018-06-02T05:50:51.719Z,95.12
2018-06-02T05:51:51.967Z,94.74
2018-06-02T05:52:52.190Z,95.50
2018-06-02T05:53:52.404Z,95.70
2018-06-02T05:54:52.620Z,95.50
2018-06-02T05:55:52.833Z,95.31
2018-06-02T05:56:53.044Z,95.50
2018-06-02T05:57:53.231Z,95.60
2018-06-02T05:58:53.441Z,95.70
2018-06-02T05:59:53.699Z,95.79
2018-06-02T06:00:53.868Z,95.89
2018-06-02T06:01:54.073Z,95.89
2018-06-02T06:02:54.261Z,95.41
2018-06-02T06:03:54.457Z,95.70
2018-06-02T06:04:54.662Z,96.08
2018-06-02T06:05:54.860Z,96.18
2018-06-02T06:06:55.068Z,96.37
2018-06-02T06:07:55.276Z,96.37
2018-06-02T06:08:55.492Z,96.37
2018-06-02T06:09:55.696Z,96.37
2018-06-02T06:10:55.899Z,96.18
2018-06-02T06:11:56.106Z,96.47
2018-06-02T06:12:56.319Z,96.37
2018-06-02T06:13:56.519Z,96.18
2018-06-02T06:14:56.735Z,95.98
2018-06-02T06:15:56.944Z,95.60
2018-06-02T06:16:57.131Z,95.41
2018-06-02T06:17:57.351Z,95.79
2018-06-02T06:18:57.567Z,95.98
2018-06-02T06:19:57.772Z,95.31
2018-06-02T06:20:57.961Z,95.60
2018-06-02T06:21:58.148Z,95.21
2018-06-02T06:22:58.362Z,95.89
2018-06-02T06:25:32.257Z,94.78
2018-06-02T06:26:30.691Z,95.89
2018-06-02T06:27:30.900Z,94.83
2018-06-02T06:28:31.220Z,95.55
2018-06-02T06:29:31.276Z,95.17
2018-06-02T06:30:31.495Z,94.49
2018-06-02T06:31:31.687Z,95.12
2018-06-02T06:32:31.894Z,95.36
2018-06-02T06:33:32.099Z,94.49
2018-06-02T06:34:32.341Z,94.21
2018-06-02T06:35:32.516Z,94.21
2018-06-02T06:36:32.693Z,94.59
2018-06-02T06:37:32.892Z,94.49
2018-06-02T06:38:33.070Z,94.40
2018-06-02T06:39:33.282Z,94.40
2018-06-02T06:40:33.493Z,93.63
2018-06-02T06:41:33.688Z,93.54
2018-06-02T06:42:33.900Z,93.54
2018-06-02T06:43:34.112Z,93.44
2018-06-02T06:44:34.384Z,93.25
2018-06-02T06:45:34.502Z,93.44
2018-06-02T06:46:34.749Z,93.54
2018-06-02T06:47:34.924Z,93.05
2018-06-02T06:48:35.115Z,93.44
2018-06-02T06:49:35.320Z,93.10
2018-06-02T06:50:35.520Z,93.15
2018-06-02T06:51:35.698Z,92.52
2018-06-02T06:52:35.913Z,92.24
2018-06-02T06:53:36.108Z,92.14
2018-06-02T06:54:36.304Z,91.85
2018-06-02T06:55:36.491Z,91.08
2018-06-02T06:56:36.682Z,91.37
2018-06-02T06:57:36.907Z,90.55
2018-06-02T06:58:37.095Z,91.61
2018-06-02T06:59:37.277Z,91.37
2018-06-02T07:00:37.514Z,90.84
2018-06-02T07:01:37.711Z,90.75
2018-06-02T07:02:37.919Z,90.55
2018-06-02T07:03:38.131Z,90.84
2018-06-02T07:04:38.346Z,90.17
2018-06-02T07:05:38.542Z,89.69
2018-06-02T07:06:38.736Z,90.36
2018-06-02T07:07:38.930Z,90.55
2018-06-02T07:08:39.156Z,90.55
2018-06-02T07:09:39.362Z,90.07
2018-06-02T07:10:39.550Z,90.84
2018-06-02T07:11:39.773Z,91.32
2018-06-02T07:12:39.976Z,91.08
2018-06-02T07:13:40.187Z,91.99
2018-06-02T07:14:40.379Z,90.99
2018-06-02T07:15:40.603Z,90.26
2018-06-02T07:16:40.793Z,90.17
2018-06-02T07:17:41.004Z,90.60
2018-06-02T07:18:41.206Z,90.84
2018-06-02T07:19:41.400Z,90.17
2018-06-02T07:20:41.612Z,90.26
2018-06-02T07:21:41.871Z,90.26
2018-06-02T07:22:42.023Z,90.55
2018-06-02T07:23:42.227Z,90.36
2018-06-02T07:24:42.470Z,90.26
2018-06-02T07:25:42.672Z,89.78
2018-06-02T07:26:42.885Z,89.59
2018-06-02T07:27:43.083Z,89.01
2018-06-02T07:28:43.304Z,88.92
2018-06-02T07:29:43.523Z,88.57
2018-06-02T07:30:43.733Z,88.57
2018-06-02T07:31:43.946Z,88.29
2018-06-02T07:32:44.140Z,87.96
2018-06-02T07:33:44.350Z,87.90
2018-06-02T07:34:44.559Z,87.52
2018-06-02T07:35:44.755Z,87.76
2018-06-02T07:36:44.970Z,87.56
2018-06-02T07:37:45.182Z,86.69
2018-06-02T07:38:45.397Z,86.65
2018-06-02T07:39:45.608Z,87.13
2018-06-02T07:40:45.818Z,86.99
2018-06-02T07:41:46.030Z,87.52
2018-06-02T07:42:46.172Z,87.33
2018-06-02T07:43:46.379Z,87.56
2018-06-02T07:44:46.582Z,86.75
2018-06-02T07:45:46.820Z,86.75
2018-06-02T07:46:47.610Z,87.04
2018-06-02T07:47:47.166Z,87.08
2018-06-02T07:48:47.377Z,85.68
2018-06-02T07:49:47.621Z,85.39
2018-06-02T07:50:47.791Z,84.81
2018-06-02T07:51:47.983Z,83.85
2018-06-02T07:52:48.170Z,84.14
2018-06-02T07:53:48.362Z,83.56
2018-06-02T07:54:48.570Z,83.12
2018-06-02T07:55:48.787Z,81.72
2018-06-02T07:56:48.997Z,81.52
2018-06-02T07:57:49.209Z,80.94
2018-06-02T07:58:49.408Z,80.41
2018-06-02T07:59:49.629Z,79.35
2018-06-02T08:00:49.833Z,78.77
2018-06-02T08:01:50.043Z,78.67
2018-06-02T08:02:50.253Z,78.77
2018-06-02T08:03:50.472Z,78.33
2018-06-02T08:04:50.670Z,78.42
2018-06-02T08:05:50.868Z,78.58
2018-06-02T08:06:51.082Z,78.67
2018-06-02T08:07:51.305Z,78.19
2018-06-02T08:08:51.511Z,77.17
2018-06-02T08:09:51.728Z,76.68
2018-06-02T08:10:51.956Z,77.55
2018-06-02T08:11:52.140Z,77.46
2018-06-02T08:12:52.339Z,76.78
2018-06-02T08:13:52.515Z,75.95
2018-06-02T08:14:52.697Z,75.92
2018-06-02T08:15:52.900Z,75.95
2018-06-02T08:16:53.103Z,75.92
2018-06-02T08:17:53.313Z,76.20
2018-06-02T08:18:53.557Z,75.92
2018-06-02T08:19:53.770Z,75.92
2018-06-02T08:20:53.970Z,75.92
2018-06-02T08:21:54.173Z,75.72
2018-06-02T08:22:54.385Z,76.10
2018-06-02T08:23:54.603Z,76.01
2018-06-02T08:24:54.792Z,76.01
2018-06-02T08:25:55.001Z,76.93
2018-06-02T08:26:55.228Z,77.55
2018-06-02T08:27:55.430Z,76.93
2018-06-02T08:28:55.646Z,77.58
2018-06-02T08:29:55.845Z,78.21
2018-06-02T08:30:56.058Z,79.27
2018-06-02T08:31:56.255Z,78.98
2018-06-02T08:32:56.447Z,78.79
2018-06-02T08:33:56.688Z,79.56
2018-06-02T08:34:56.868Z,80.10
2018-06-02T08:35:57.071Z,80.29
2018-06-02T08:38:29.821Z,81.16
2018-06-02T08:39:29.631Z,81.35
2018-06-02T08:40:29.855Z,81.45
2018-06-02T08:41:30.062Z,81.73
2018-06-02T08:42:30.282Z,81.93
2018-06-02T08:43:30.478Z,82.12
2018-06-02T08:44:30.674Z,82.21
2018-06-02T08:45:30.886Z,82.12
2018-06-02T08:46:31.192Z,81.96
2018-06-02T08:47:31.314Z,81.20
2018-06-02T08:48:31.532Z,80.91
2018-06-02T08:49:31.740Z,79.94
2018-06-02T08:50:31.933Z,81.10
2018-06-02T08:51:32.141Z,80.18
2018-06-02T08:52:32.336Z,79.60
2018-06-02T08:53:32.548Z,78.92
2018-06-02T08:54:32.763Z,78.06
2018-06-02T08:57:04.957Z,77.42
2018-06-02T08:58:05.237Z,77.23
2018-06-02T08:59:05.306Z,76.10
2018-06-02T09:00:05.513Z,75.85
2018-06-02T09:01:05.705Z,71.46
2018-06-02T09:03:37.530Z,64.49
2018-06-02T09:04:37.713Z,60.63
2018-06-02T09:05:37.927Z,57.59
2018-06-02T09:06:38.188Z,58.12
2018-06-02T09:07:38.317Z,61.10
2018-06-02T09:08:38.503Z,61.65
2018-06-02T09:09:38.747Z,61.85
2018-06-02T09:10:38.938Z,62.98
2018-06-02T09:11:39.150Z,62.75
2018-06-02T09:12:39.349Z,63.89
2018-06-02T09:13:39.600Z,66.17
2018-06-02T09:14:39.811Z,65.27
2018-06-02T09:15:40.082Z,66.72
2018-06-02T09:16:40.258Z,68.24
2018-06-02T09:17:40.474Z,69.56
2018-06-02T09:18:40.665Z,70.04
2018-06-02T09:19:40.866Z,70.20
2018-06-02T09:20:41.055Z,70.87
2018-06-02T09:21:41.319Z,71.26
2018-06-02T09:22:41.458Z,73.06
2018-06-02T09:23:41.667Z,72.96
2018-06-02T09:24:41.863Z,72.28
2018-06-02T09:25:42.080Z,72.22
2018-06-02T09:26:42.280Z,71.14
2018-06-02T09:27:42.504Z,68.49
2018-06-02T09:28:42.708Z,66.85
2018-06-02T09:29:42.901Z,67.46
2018-06-02T09:30:43.115Z,66.91
2018-06-02T09:31:43.318Z,67.59
2018-06-02T09:32:43.628Z,67.88
2018-06-02T09:33:43.733Z,66.47
2018-06-02T09:34:43.935Z,66.95
2018-06-02T09:35:44.157Z,66.53
2018-06-02T09:36:44.365Z,67.94
2018-06-02T09:37:44.584Z,67.21
2018-06-02T09:38:44.796Z,67.14
2018-06-02T09:39:44.992Z,66.14
2018-06-02T09:42:17.141Z,66.11
2018-06-02T09:43:17.327Z,67.94
2018-06-02T09:44:17.520Z,68.30
2018-06-02T09:45:17.730Z,69.56
2018-06-02T09:46:17.919Z,69.46
2018-06-02T09:47:18.115Z,69.81
2018-06-02T09:48:18.331Z,69.81
2018-06-02T09:49:18.540Z,70.94
2018-06-02T09:50:18.760Z,71.03
2018-06-02T09:51:18.977Z,72.03
2018-06-02T09:52:19.178Z,71.16
2018-06-02T09:53:19.388Z,71.74
2018-06-02T09:54:19.603Z,71.64
2018-06-02T09:55:19.843Z,71.06
2018-06-02T09:56:20.037Z,70.68
2018-06-02T09:57:20.258Z,71.36
2018-06-02T09:59:52.563Z,70.84
2018-06-02T10:00:52.778Z,71.42
2018-06-02T10:01:52.990Z,71.03
2018-06-02T10:02:53.206Z,71.61
2018-06-02T10:03:53.410Z,72.19
2018-06-02T10:04:53.639Z,71.09
2018-06-02T10:05:53.868Z,71.22
2018-06-02T10:06:54.059Z,71.61
2018-06-02T10:07:54.282Z,71.80
2018-06-02T10:08:54.497Z,72.96
2018-06-02T10:09:54.708Z,71.61
2018-06-02T10:10:54.915Z,71.70
2018-06-02T10:11:55.134Z,71.55
2018-06-02T10:12:55.324Z,71.06
2018-06-02T10:13:55.547Z,71.26
2018-06-02T10:14:55.761Z,71.26
2018-06-02T10:15:55.957Z,71.06
2018-06-02T10:16:56.160Z,71.51
2018-06-02T10:17:56.368Z,72.48
2018-06-02T10:18:56.568Z,73.31
2018-06-02T10:19:56.824Z,73.99
2018-06-02T10:20:57.020Z,74.18
2018-06-02T10:21:57.225Z,74.27
2018-06-02T10:22:57.439Z,74.95
2018-06-02T10:23:57.665Z,75.05
2018-06-02T10:24:57.878Z,74.76
2018-06-02T10:25:58.089Z,75.05
2018-06-02T10:28:30.400Z,74.85
2018-06-02T10:29:30.520Z,74.76
2018-06-02T10:30:30.666Z,74.95
2018-06-02T10:31:30.882Z,74.66
2018-06-02T10:32:31.080Z,74.57
2018-06-02T10:33:31.266Z,73.79
2018-06-02T10:34:31.474Z,73.69
2018-06-02T10:35:31.747Z,74.31
2018-06-02T10:36:31.904Z,73.54
2018-06-02T10:37:32.143Z,74.02
2018-06-02T10:38:32.290Z,71.94
2018-06-02T10:39:32.516Z,71.55
2018-06-02T10:40:32.739Z,72.64
2018-06-02T10:41:32.931Z,71.39
2018-06-02T10:42:33.152Z,71.10
2018-06-02T10:43:33.362Z,71.20
2018-06-02T10:44:33.629Z,71.06
2018-06-02T10:45:33.782Z,71.55
2018-06-02T10:46:33.994Z,71.84
2018-06-02T10:47:34.199Z,72.03
2018-06-02T10:48:34.412Z,71.74
2018-06-02T10:49:34.631Z,71.45
2018-06-02T10:50:34.833Z,71.55
2018-06-02T10:51:35.044Z,72.28
2018-06-02T10:52:35.257Z,72.67
2018-06-02T10:53:35.473Z,73.15
2018-06-02T10:54:35.711Z,72.52
2018-06-02T10:55:35.941Z,72.77
2018-06-02T10:56:36.138Z,72.48
2018-06-02T10:57:36.351Z,73.06
2018-06-02T10:58:36.554Z,73.83
2018-06-02T10:59:36.771Z,73.35
2018-06-02T11:00:36.965Z,73.73
2018-06-02T11:01:37.174Z,73.25
2018-06-02T11:02:37.386Z,72.90
2018-06-02T11:03:37.590Z,72.42
2018-06-02T11:04:37.784Z,71.94
2018-06-02T11:05:37.982Z,71.68
2018-06-02T11:06:38.208Z,71.39
2018-06-02T11:07:38.423Z,70.65
2018-06-02T11:08:38.614Z,68.91
2018-06-02T11:09:38.835Z,68.24
2018-06-02T11:10:39.025Z,70.14
2018-06-02T11:11:39.249Z,71.20
2018-06-02T11:12:39.444Z,71.10
2018-06-02T11:13:39.645Z,71.39
2018-06-02T11:14:39.835Z,71.30
2018-06-02T11:15:40.063Z,70.07
2018-06-02T11:16:40.253Z,69.04
2018-06-02T11:17:40.477Z,67.82
2018-06-02T11:18:40.694Z,67.43
2018-06-02T11:19:40.892Z,66.92
2018-06-02T11:20:41.108Z,65.27
2018-06-02T11:21:41.330Z,64.20
2018-06-02T11:22:41.639Z,64.04
2018-06-02T11:23:41.719Z,63.92
2018-06-02T11:24:41.930Z,63.72
2018-06-02T11:25:42.180Z,64.62
2018-06-02T11:26:42.343Z,65.79
2018-06-02T11:27:42.559Z,64.53
2018-06-02T11:28:42.738Z,63.85
2018-06-02T11:29:42.950Z,64.69
2018-06-02T11:30:43.165Z,66.02
2018-06-02T11:31:43.372Z,65.34
2018-06-02T11:32:43.599Z,66.17
2018-06-02T11:33:43.811Z,64.85
2018-06-02T11:34:44.005Z,65.20
2018-06-02T11:35:44.202Z,66.66
2018-06-02T11:36:44.403Z,67.14
2018-06-02T11:37:44.605Z,66.24
2018-06-02T11:40:16.445Z,69.56
2018-06-02T11:41:16.625Z,69.52
2018-06-02T11:42:16.845Z,70.23
2018-06-02T11:43:17.050Z,70.48
2018-06-02T11:44:17.266Z,70.68
2018-06-02T11:45:17.455Z,71.03
2018-06-02T11:46:17.703Z,71.80
2018-06-02T11:47:17.907Z,72.09
2018-06-02T11:48:18.113Z,72.67
2018-06-02T11:49:18.339Z,73.06
2018-06-02T11:50:18.554Z,72.67
2018-06-02T11:51:18.762Z,73.15
2018-06-02T11:52:18.970Z,72.86
2018-06-02T11:53:19.171Z,72.67
2018-06-02T11:54:19.404Z,72.86
2018-06-02T11:55:19.621Z,72.58
2018-06-02T11:56:19.821Z,72.77
2018-06-02T11:57:20.030Z,72.77
2018-06-02T11:58:20.231Z,74.99
2018-06-02T11:59:20.437Z,74.27
2018-06-02T12:01:53.272Z,75.62
2018-06-02T12:02:53.314Z,75.53
2018-06-02T12:03:53.524Z,76.01
2018-06-02T12:04:53.720Z,76.15
2018-06-02T12:05:53.928Z,76.20
2018-06-02T12:06:54.205Z,76.40
2018-06-02T12:07:54.342Z,77.55
2018-06-02T12:08:54.538Z,78.23
2018-06-02T12:09:54.750Z,78.13
2018-06-02T12:10:54.945Z,78.33
2018-06-02T12:11:55.162Z,78.03
2018-06-02T12:12:55.372Z,78.38
2018-06-02T12:13:55.590Z,79.44
2018-06-02T12:14:55.784Z,78.96
2018-06-02T12:15:55.986Z,80.51
2018-06-02T12:16:56.199Z,81.27
2018-06-02T12:17:56.405Z,80.79
2018-06-02T12:18:56.587Z,81.09
2018-06-02T12:19:56.785Z,82.97
2018-06-02T12:20:56.982Z,80.94
2018-06-02T12:21:57.188Z,81.87
2018-06-02T12:22:57.382Z,82.54
2018-06-02T12:23:57.603Z,83.41
2018-06-02T12:24:57.803Z,83.80
2018-06-02T12:25:58.023Z,83.99
2018-06-02T12:26:58.230Z,83.80
2018-06-02T12:27:58.427Z,83.89
2018-06-02T12:28:58.634Z,83.61
2018-06-02T12:29:58.847Z,83.80
2018-06-02T12:30:59.056Z,84.47
2018-06-02T12:31:59.263Z,85.82
2018-06-02T12:34:31.139Z,86.49
2018-06-02T12:35:31.325Z,87.26
2018-06-02T12:36:31.514Z,86.78
2018-06-02T12:37:31.730Z,86.40
2018-06-02T12:38:31.923Z,86.11
2018-06-02T12:39:32.118Z,86.35
2018-06-02T12:40:32.306Z,86.25
2018-06-02T12:41:32.506Z,86.25
2018-06-02T12:42:32.723Z,85.57
2018-06-02T12:43:32.923Z,86.25
2018-06-02T12:44:33.117Z,86.44
2018-06-02T12:45:33.332Z,86.05
2018-06-02T12:46:33.583Z,84.94
2018-06-02T12:47:33.793Z,84.55
2018-06-02T12:48:34.013Z,83.59
2018-06-02T12:49:34.253Z,83.73
2018-06-02T12:50:34.451Z,82.18
2018-06-02T12:51:34.661Z,83.30
2018-06-02T12:52:34.872Z,83.11
2018-06-02T12:53:35.094Z,82.96
2018-06-02T12:54:35.303Z,82.38
2018-06-02T12:55:35.622Z,81.90
2018-06-02T12:56:35.713Z,81.60
2018-06-02T12:57:35.911Z,81.32
2018-06-02T12:58:36.113Z,80.54
2018-06-02T12:59:36.331Z,80.26
2018-06-02T13:00:36.526Z,80.58
2018-06-02T13:01:36.739Z,79.52
2018-06-02T13:02:36.956Z,79.04
2018-06-02T13:03:37.162Z,79.56
2018-06-02T13:06:17.572Z,78.11
2018-06-02T13:07:09.486Z,78.21
2018-06-02T13:08:09.698Z,76.51
2018-06-02T13:09:09.914Z,76.80
2018-06-02T13:10:10.131Z,76.22
2018-06-02T13:11:10.324Z,77.22
2018-06-02T13:12:10.543Z,75.91
2018-06-02T13:13:10.744Z,73.94
2018-06-02T13:14:10.973Z,75.00
2018-06-02T13:15:11.175Z,76.32
2018-06-02T13:16:11.383Z,76.74
2018-06-02T13:17:11.574Z,75.87
2018-06-02T13:18:11.787Z,75.97